Time,TemperatureF,DewpointF,PressureIn,WindDirection,WindDirectionDegrees,WindSpeedMPH,WindSpeedGustMPH,Humidity,HourlyPrecipIn,Conditions,Clouds,dailyrainin,SoftwareType,DateUTC
2013-06-28 00:11:00,68.3,54.0,29.96,North,-999,0.0,-999.0,61,-99.99,,,0.00,weatherlink.com 1.10,2013-06-28 08:11:00,
2013-06-28 00:26:00,67.8,54.0,29.96,North,-999,0.0,-999.0,61,-99.99,,,0.00,weatherlink.com 1.10,2013-06-28 08:26:00,
2013-06-28 00:41:00,66.8,54.0,29.96,North,-999,0.0,-999.0,64,-99.99,,,0.00,weatherlink.com 1.10,2013-06-28 08:41:00,
2013-06-28 00:56:00,66.5,55.0,29.96,North,-999,0.0,-999.0,67,-99.99,,,0.00,weatherlink.com 1.10,2013-06-28 08:56:00,
2013-06-28 01:11:00,66.3,55.0,29.98,North,360,0.0,-999.0,68,-99.99,,,0.00,weatherlink.com 1.10,2013-06-28 09:11:00,
2013-06-28 01:26:00,65.8,56.0,29.98,North,-999,0.0,-999.0,70,-99.99,,,0.00,weatherlink.com 1.10,2013-06-28 09:26:00,
2013-06-28 01:41:00,65.2,56.0,29.98,North,360,0.0,-999.0,72,-99.99,,,0.00,weatherlink.com 1.10,2013-06-28 09:41:00,
2013-06-28 01:56:00,64.6,56.0,29.98,North,-999,0.0,-999.0,73,-99.99,,,0.00,weatherlink.com 1.10,2013-06-28 09:56:00,
2013-06-28 02:11:00,64.2,56.0,29.98,North,360,0.0,-999.0,74,-99.99,,,0.00,weatherlink.com 1.10,2013-06-28 10:11:00,
2013-06-28 02:26:00,64.0,56.0,29.98,North,360,0.0,-999.0,75,-99.99,,,0.00,weatherlink.com 1.10,2013-06-28 10:26:00,
2013-06-28 02:41:00,64.2,56.0,29.98,North,-999,0.0,-999.0,75,-99.99,,,0.00,weatherlink.com 1.10,2013-06-28 10:41:00,
2013-06-28 02:56:00,64.4,56.0,29.98,North,360,0.0,-999.0,75,-99.99,,,0.00,weatherlink.com 1.10,2013-06-28 10:56:00,
2013-06-28 03:11:00,64.3,56.0,29.99,North,-999,0.0,-999.0,75,-99.99,,,0.00,weatherlink.com 1.10,2013-06-28 11:11:00,
2013-06-28 03:26:00,64.4,56.0,29.99,North,-999,0.0,-999.0,75,-99.99,,,0.00,weatherlink.com 1.10,2013-06-28 11:26:00,
2013-06-28 03:41:00,64.6,57.0,29.98,North,-999,0.0,-999.0,75,-99.99,,,0.00,weatherlink.com 1.10,2013-06-28 11:41:00,
2013-06-28 03:56:00,64.7,57.0,29.98,North,-999,0.0,-999.0,75,-99.99,,,0.00,weatherlink.com 1.10,2013-06-28 11:56:00,
2013-06-28 04:11:00,64.6,57.0,29.99,North,-999,0.0,-999.0,75,-99.99,,,0.00,weatherlink.com 1.10,2013-06-28 12:11:00,
2013-06-28 04:26:00,64.8,56.0,29.99,North,-999,0.0,-999.0,74,-99.99,,,0.00,weatherlink.com 1.10,2013-06-28 12:26:00,
2013-06-28 04:41:00,64.9,56.0,29.99,North,360,0.0,-999.0,73,-99.99,,,0.00,weatherlink.com 1.10,2013-06-28 12:41:00,
2013-06-28 04:56:00,64.3,56.0,29.99,North,360,0.0,-999.0,75,-99.99,,,0.00,weatherlink.com 1.10,2013-06-28 12:56:00,
2013-06-28 05:11:00,63.2,56.0,30.00,North,360,0.0,-999.0,78,-99.99,,,0.00,weatherlink.com 1.10,2013-06-28 13:11:00,
2013-06-28 05:26:00,62.5,56.0,29.99,North,360,0.0,-999.0,79,-99.99,,,0.00,weatherlink.com 1.10,2013-06-28 13:26:00,
2013-06-28 05:41:00,61.5,56.0,30.00,North,-999,0.0,-999.0,81,-99.99,,,0.00,weatherlink.com 1.10,2013-06-28 13:41:00,
2013-06-28 05:56:00,60.9,56.0,30.00,North,-999,0.0,-999.0,83,-99.99,,,0.00,weatherlink.com 1.10,2013-06-28 13:56:00,
2013-06-28 06:11:00,61.2,56.0,30.00,North,-999,0.0,-999.0,83,-99.99,,,0.00,weatherlink.com 1.10,2013-06-28 14:11:00,
2013-06-28 06:26:00,61.6,56.0,30.00,North,-999,0.0,-999.0,83,-99.99,,,0.00,weatherlink.com 1.10,2013-06-28 14:26:00,
2013-06-28 06:42:00,61.9,56.0,30.01,North,360,0.0,-999.0,82,-99.99,,,0.00,weatherlink.com 1.10,2013-06-28 14:42:00,
2013-06-28 06:57:00,62.2,57.0,30.01,North,360,0.0,-999.0,82,-99.99,,,0.00,weatherlink.com 1.10,2013-06-28 14:57:00,
2013-06-28 07:12:00,63.0,57.0,30.01,North,360,0.0,-999.0,82,-99.99,,,0.00,weatherlink.com 1.10,2013-06-28 15:12:00,
2013-06-28 07:27:00,63.7,58.0,30.01,North,360,0.0,-999.0,81,-99.99,,,0.00,weatherlink.com 1.10,2013-06-28 15:27:00,
2013-06-28 07:42:00,64.2,58.0,30.01,North,-999,0.0,-999.0,79,-99.99,,,0.00,weatherlink.com 1.10,2013-06-28 15:42:00,
2013-06-28 07:57:00,64.4,58.0,30.01,North,-999,0.0,-999.0,80,-99.99,,,0.00,weatherlink.com 1.10,2013-06-28 15:57:00,
2013-06-28 08:12:00,64.9,58.0,30.01,North,-999,0.0,-999.0,78,-99.99,,,0.00,weatherlink.com 1.10,2013-06-28 16:12:00,
2013-06-28 08:27:00,65.6,58.0,30.02,North,-999,0.0,-999.0,76,-99.99,,,0.00,weatherlink.com 1.10,2013-06-28 16:27:00,
2013-06-28 08:42:00,66.1,58.0,30.02,North,-999,0.0,-999.0,74,-99.99,,,0.00,weatherlink.com 1.10,2013-06-28 16:42:00,
2013-06-28 08:57:00,66.7,59.0,30.02,North,360,0.0,-999.0,75,-99.99,,,0.00,weatherlink.com 1.10,2013-06-28 16:57:00,
2013-06-28 09:12:00,67.1,59.0,30.02,North,360,0.0,-999.0,74,-99.99,,,0.00,weatherlink.com 1.10,2013-06-28 17:12:00,
2013-06-28 09:27:00,67.6,59.0,30.02,North,-999,0.0,-999.0,73,-99.99,,,0.00,weatherlink.com 1.10,2013-06-28 17:27:00,
2013-06-28 09:42:00,68.1,59.0,30.02,North,360,0.0,-999.0,73,-99.99,,,0.00,weatherlink.com 1.10,2013-06-28 17:42:00,
2013-06-28 09:57:00,68.7,58.0,30.01,North,-999,0.0,-999.0,68,-99.99,,,0.00,weatherlink.com 1.10,2013-06-28 17:57:00,
2013-06-28 10:12:00,69.3,57.0,30.01,North,360,0.0,-999.0,65,-99.99,,,0.00,weatherlink.com 1.10,2013-06-28 18:12:00,
2013-06-28 10:27:00,70.2,56.0,30.01,North,-999,0.0,-999.0,62,-99.99,,,0.00,weatherlink.com 1.10,2013-06-28 18:27:00,
2013-06-28 10:42:00,70.9,56.0,30.01,North,-999,0.0,-999.0,60,-99.99,,,0.00,weatherlink.com 1.10,2013-06-28 18:42:00,
2013-06-28 10:57:00,72.0,56.0,30.01,North,360,0.0,-999.0,57,-99.99,,,0.00,weatherlink.com 1.10,2013-06-28 18:57:00,
2013-06-28 11:12:00,72.2,56.0,30.01,North,-999,0.0,-999.0,57,-99.99,,,0.00,weatherlink.com 1.10,2013-06-28 19:12:00,
2013-06-28 11:27:00,72.0,56.0,30.01,North,-999,0.0,-999.0,57,-99.99,,,0.00,weatherlink.com 1.10,2013-06-28 19:27:00,
2013-06-28 11:42:00,72.0,57.0,30.01,North,-999,0.0,-999.0,59,-99.99,,,0.00,weatherlink.com 1.10,2013-06-28 19:42:00,
2013-06-28 11:57:00,72.2,55.0,30.01,North,-999,0.0,-999.0,56,-99.99,,,0.00,weatherlink.com 1.10,2013-06-28 19:57:00,
2013-06-28 12:12:00,73.7,55.0,30.01,North,-999,0.0,-999.0,52,-99.99,,,0.00,weatherlink.com 1.10,2013-06-28 20:12:00,
2013-06-28 12:27:00,73.2,55.0,30.01,North,-999,0.0,-999.0,54,-99.99,,,0.00,weatherlink.com 1.10,2013-06-28 20:27:00,
2013-06-28 12:42:00,73.7,56.0,30.01,North,-999,0.0,-999.0,55,-99.99,,,0.00,weatherlink.com 1.10,2013-06-28 20:42:00,
2013-06-28 12:57:00,73.1,55.0,30.01,North,360,0.0,-999.0,54,-99.99,,,0.00,weatherlink.com 1.10,2013-06-28 20:57:00,
2013-06-28 13:12:00,73.3,54.0,30.01,North,360,0.0,-999.0,52,-99.99,,,0.00,weatherlink.com 1.10,2013-06-28 21:12:00,
2013-06-28 13:27:00,75.3,56.0,30.01,North,360,0.0,-999.0,52,-99.99,,,0.00,weatherlink.com 1.10,2013-06-28 21:27:00,
2013-06-28 13:42:00,76.0,56.0,30.00,North,360,0.0,-999.0,51,-99.99,,,0.00,weatherlink.com 1.10,2013-06-28 21:42:00,
2013-06-28 13:57:00,77.2,56.0,30.00,North,360,0.0,-999.0,48,-99.99,,,0.00,weatherlink.com 1.10,2013-06-28 21:57:00,
2013-06-28 14:12:00,78.9,55.0,30.00,North,-999,0.0,-999.0,44,-99.99,,,0.00,weatherlink.com 1.10,2013-06-28 22:12:00,
2013-06-28 14:27:00,79.1,55.0,30.00,North,-999,0.0,-999.0,43,-99.99,,,0.00,weatherlink.com 1.10,2013-06-28 22:27:00,
2013-06-28 14:42:00,80.4,55.0,30.00,North,-999,0.0,-999.0,42,-99.99,,,0.00,weatherlink.com 1.10,2013-06-28 22:42:00,
2013-06-28 14:57:00,78.9,55.0,29.99,North,-999,0.0,-999.0,44,-99.99,,,0.00,weatherlink.com 1.10,2013-06-28 22:57:00,
2013-06-28 15:12:00,79.4,55.0,29.99,North,-999,0.0,-999.0,43,-99.99,,,0.00,weatherlink.com 1.10,2013-06-28 23:12:00,
2013-06-28 15:27:00,78.7,54.0,29.98,North,-999,0.0,-999.0,43,-99.99,,,0.00,weatherlink.com 1.10,2013-06-28 23:27:00,
2013-06-28 15:42:00,76.9,54.0,29.99,North,-999,0.0,-999.0,46,-99.99,,,0.00,weatherlink.com 1.10,2013-06-28 23:42:00,
2013-06-28 15:57:00,76.3,55.0,29.98,North,360,0.0,-999.0,47,-99.99,,,0.00,weatherlink.com 1.10,2013-06-28 23:57:00,
2013-06-28 16:12:00,75.9,55.0,29.99,North,-999,0.0,-999.0,48,-99.99,,,0.00,weatherlink.com 1.10,2013-06-29 00:12:00,
2013-06-28 16:27:00,75.2,55.0,29.99,North,360,0.0,-999.0,49,-99.99,,,0.00,weatherlink.com 1.10,2013-06-29 00:27:00,
2013-06-28 16:42:00,75.1,55.0,29.98,North,-999,0.0,-999.0,49,-99.99,,,0.00,weatherlink.com 1.10,2013-06-29 00:42:00,
2013-06-28 16:57:00,75.9,55.0,29.98,North,-999,0.0,-999.0,48,-99.99,,,0.00,weatherlink.com 1.10,2013-06-29 00:57:00,
2013-06-28 17:12:00,76.6,56.0,29.98,North,-999,0.0,-999.0,49,-99.99,,,0.00,weatherlink.com 1.10,2013-06-29 01:12:00,
2013-06-28 17:27:00,75.8,56.0,29.98,North,360,0.0,-999.0,51,-99.99,,,0.00,weatherlink.com 1.10,2013-06-29 01:27:00,
2013-06-28 17:42:00,75.7,56.0,29.98,North,360,0.0,-999.0,50,-99.99,,,0.00,weatherlink.com 1.10,2013-06-29 01:42:00,
2013-06-28 17:57:00,74.7,55.0,29.98,North,-999,0.0,-999.0,51,-99.99,,,0.00,weatherlink.com 1.10,2013-06-29 01:57:00,
2013-06-28 18:12:00,74.1,55.0,29.97,North,-999,0.0,-999.0,51,-99.99,,,0.00,weatherlink.com 1.10,2013-06-29 02:12:00,
2013-06-28 18:27:00,74.3,55.0,29.97,North,-999,0.0,-999.0,52,-99.99,,,0.00,weatherlink.com 1.10,2013-06-29 02:27:00,
2013-06-28 18:42:00,74.3,55.0,29.97,North,-999,0.0,-999.0,52,-99.99,,,0.00,weatherlink.com 1.10,2013-06-29 02:42:00,
2013-06-28 18:57:00,74.1,56.0,29.97,North,-999,0.0,-999.0,54,-99.99,,,0.00,weatherlink.com 1.10,2013-06-29 02:57:00,
2013-06-28 19:12:00,74.1,56.0,29.97,North,360,0.0,-999.0,54,-99.99,,,0.00,weatherlink.com 1.10,2013-06-29 03:12:00,
2013-06-28 19:27:00,73.9,56.0,29.96,North,-999,0.0,-999.0,53,-99.99,,,0.00,weatherlink.com 1.10,2013-06-29 03:27:00,
2013-06-28 19:42:00,73.9,56.0,29.96,North,-999,0.0,-999.0,53,-99.99,,,0.00,weatherlink.com 1.10,2013-06-29 03:42:00,
2013-06-28 19:57:00,73.9,56.0,29.96,North,-999,0.0,-999.0,54,-99.99,,,0.00,weatherlink.com 1.10,2013-06-29 03:57:00,
2013-06-28 20:12:00,73.5,57.0,29.96,North,-999,0.0,-999.0,56,-99.99,,,0.00,weatherlink.com 1.10,2013-06-29 04:12:00,
2013-06-28 20:27:00,73.2,56.0,29.96,North,-999,0.0,-999.0,55,-99.99,,,0.00,weatherlink.com 1.10,2013-06-29 04:27:00,
2013-06-28 20:42:00,73.0,56.0,29.96,North,360,0.0,-999.0,55,-99.99,,,0.00,weatherlink.com 1.10,2013-06-29 04:42:00,
2013-06-28 20:58:00,72.9,56.0,29.96,North,360,0.0,-999.0,55,-99.99,,,0.00,weatherlink.com 1.10,2013-06-29 04:58:00,
2013-06-28 21:13:00,72.8,59.0,29.96,North,-999,0.0,-999.0,63,-99.99,,,0.00,weatherlink.com 1.10,2013-06-29 05:13:00,
2013-06-28 21:28:00,72.5,60.0,29.96,North,-999,0.0,-999.0,64,-99.99,,,0.00,weatherlink.com 1.10,2013-06-29 05:28:00,
2013-06-28 21:43:00,72.2,60.0,29.96,North,-999,0.0,-999.0,66,-99.99,,,0.00,weatherlink.com 1.10,2013-06-29 05:43:00,
2013-06-28 21:58:00,72.1,60.0,29.96,North,-999,0.0,-999.0,66,-99.99,,,0.00,weatherlink.com 1.10,2013-06-29 05:58:00,
2013-06-28 22:13:00,71.5,60.0,29.96,North,-999,0.0,-999.0,68,-99.99,,,0.00,weatherlink.com 1.10,2013-06-29 06:13:00,
2013-06-28 22:28:00,70.4,60.0,29.96,North,360,0.0,-999.0,70,-99.99,,,0.00,weatherlink.com 1.10,2013-06-29 06:28:00,
2013-06-28 22:43:00,69.6,59.0,29.97,North,360,0.0,-999.0,70,-99.99,,,0.00,weatherlink.com 1.10,2013-06-29 06:43:00,
2013-06-28 22:58:00,69.4,57.0,29.97,North,360,0.0,-999.0,66,-99.99,,,0.00,weatherlink.com 1.10,2013-06-29 06:58:00,
2013-06-28 23:13:00,69.4,57.0,29.96,North,-999,0.0,-999.0,66,-99.99,,,0.00,weatherlink.com 1.10,2013-06-29 07:13:00,
2013-06-28 23:28:00,68.9,57.0,29.97,North,-999,0.0,-999.0,67,-99.99,,,0.00,weatherlink.com 1.10,2013-06-29 07:28:00,
2013-06-28 23:43:00,68.0,57.0,29.97,North,-999,0.0,-999.0,68,-99.99,,,0.00,weatherlink.com 1.10,2013-06-29 07:43:00,
2013-06-28 23:58:00,67.6,57.0,29.97,North,-999,0.0,-999.0,69,-99.99,,,0.00,weatherlink.com 1.10,2013-06-29 07:58:00,